Terminal Aerodrome Forecast
Issued by NWS Portland, OR

Home | Current Version | Previous Version | Text Only | Print | Product List | Glossary On
Versions: 1 2 3 4 5 6 7 8 9 10 11 12 13 14 15 16 17 18 19 20 21 22 23 24 25 26 27 28
000
FTUS46 KPQR 182110 AAA
TAFPDX
TAF AMD
KPDX 182110Z 1821/1918 11012KT 4SM -RA SCT020 OVC050
     FM190000 12012KT P6SM -SHRA SCT020 OVC050
     FM190300 14010KT 6SM -SHRA SCT025 BKN050
     FM190900 15008KT P6SM -SHRA BKN025 BKN040=

USA.gov is the U.S. government's official web portal to all federal, state and local government web resources and services.